Date,TemperatureHighF,TemperatureAvgF,TemperatureLowF,DewpointHighF,DewpointAvgF,DewpointLowF,HumidityHigh,HumidityAvg,HumidityLow,PressureMaxIn,PressureMinIn,WindSpeedMaxMPH,WindSpeedAvgMPH,GustSpeedMaxMPH,PrecipitationSumIn
2012-12-1,67.9,62.6,58.3,63.2,58.9,55.1,90,88,85,30.23,30.14,3,0,3,0.15
2012-12-2,75.6,63.6,53.6,64.1,58.1,50.5,91,83,64,30.24,30.16,6,0,6,0.01
2012-12-3,71.3,65.1,58.3,64.8,61.0,54.1,91,86,78,30.24,30.15,5,0,5,0.01
2012-12-4,78.8,63.4,53.3,63.7,55.5,50.1,90,77,51,30.23,30.14,8,1,8,0.01
2012-12-5,73.3,61.8,51.7,62.9,55.7,47.7,90,81,59,30.14,30.00,5,0,5,0.01
2012-12-6,70.6,64.7,62.3,63.7,60.5,58.4,90,86,75,30.01,29.92,8,1,8,0.02
2012-12-7,63.9,61.1,59.0,60.4,58.0,55.4,92,89,85,29.95,29.87,4,0,4,0.00
2012-12-8,67.3,61.5,58.3,62.1,58.3,55.1,92,89,81,29.99,29.91,5,0,5,0.00
2012-12-9,77.2,64.9,56.9,69.1,61.0,54.1,92,87,75,30.00,29.90,5,0,5,0.00
2012-12-10,82.6,67.5,59.2,69.0,62.7,56.3,92,85,60,29.91,29.72,9,1,9,0.56
2012-12-11,81.2,70.4,65.2,69.9,65.6,62.2,92,85,66,29.95,29.73,6,1,6,0.00
2012-12-12,66.2,61.0,58.5,62.6,58.1,55.6,92,90,87,30.01,29.91,4,0,4,0.94
2012-12-13,62.1,53.4,49.7,59.5,50.4,46.3,91,89,85,30.15,29.97,4,0,4,0.03
2012-12-14,59.4,54.6,49.5,53.6,50.5,47.0,91,86,76,30.18,30.04,4,0,4,0.01
2012-12-15,68.2,60.6,54.0,62.7,56.7,50.5,92,87,80,30.08,29.96,5,0,5,0.00
2012-12-16,75.2,64.0,54.5,68.6,59.8,51.8,92,87,75,29.98,29.83,7,1,7,0.00
2012-12-17,79.2,66.4,58.3,67.5,60.9,55.4,91,83,63,29.85,29.66,8,1,8,0.00
2012-12-18,74.2,64.0,46.8,63.5,54.3,41.3,92,73,40,29.92,29.72,8,1,8,0.00
2012-12-19,71.5,53.5,40.9,50.8,43.6,36.4,87,71,41,30.02,29.91,5,0,5,0.00
2012-12-20,79.6,63.0,46.4,65.2,55.7,41.8,90,78,59,29.97,29.71,14,2,14,0.00
2012-12-21,61.6,50.5,43.7,52.2,30.8,21.2,72,48,28,29.97,29.76,10,2,10,0.00
2012-12-22,61.7,45.5,35.5,31.1,25.7,20.1,75,47,28,30.00,29.80,10,1,10,0.00
2012-12-23,63.5,46.4,31.0,41.6,33.2,24.9,82,63,31,29.88,29.64,4,0,4,0.00
2012-12-24,68.8,57.1,44.1,54.9,47.8,38.3,82,72,57,29.69,29.35,8,1,8,0.00
2012-12-25,76.0,63.4,54.0,63.8,55.9,47.6,85,77,62,29.42,29.20,8,2,8,0.00
2012-12-26,72.2,62.7,43.0,64.2,53.2,33.6,87,72,48,29.22,28.86,18,4,18,0.00
2012-12-28,59.9,56.9,55.1,54.8,51.9,49.7,85,83,82,30.00,28.84,5,1,5,0.00
2012-12-29,73.3,61.9,43.9,67.7,54.1,33.7,92,76,54,30.19,29.80,10,2,10,0.00
2012-12-30,52.4,43.7,36.7,38.2,32.8,29.1,81,66,49,30.42,30.19,6,1,6,0.00
2012-12-31,66.4,51.8,41.4,54.2,45.0,36.3,85,78,63,30.42,30.25,6,0,6,0.00